Time;durP1;ratioP1;P1;durP2;ratioP2;P2;SDS_P1;SDS_P2;PMS_P1;PMS_P2;Temp;Humidity;BMP_temperature;BMP_pressure;BME280_temperature;BME280_humidity;BME280_pressure;Samples;Min_cycle;Max_cycle;Signal;HPM_P1;HPM_P2
2021/08/24 00:00:03;;;;;;;3.90;1.13;;;17.10;79.10;;;;;;4993629;28;20050;-87
2021/08/24 00:02:29;;;;;;;3.92;1.10;;;17.10;79.20;;;;;;4993935;28;20034;-86
2021/08/24 00:04:55;;;;;;;4.03;1.27;;;17.10;79.10;;;;;;4994159;28;20501;-86
2021/08/24 00:07:20;;;;;;;4.45;1.30;;;17.10;79.00;;;;;;4977859;28;20119;-87
2021/08/24 00:09:46;;;;;;;4.18;1.10;;;17.10;79.20;;;;;;4977715;28;20037;-90
2021/08/24 00:12:11;;;;;;;4.28;1.20;;;17.00;79.10;;;;;;4995375;28;20058;-91
2021/08/24 00:14:37;;;;;;;4.70;1.05;;;17.00;79.10;;;;;;4977945;28;20037;-89
2021/08/24 00:17:03;;;;;;;2.25;0.70;;;17.00;79.20;;;;;;4994302;28;20076;-88
2021/08/24 00:19:28;;;;;;;5.38;1.10;;;17.00;79.10;;;;;;4994852;28;20061;-90
2021/08/24 00:21:54;;;;;;;2.92;0.98;;;17.00;78.90;;;;;;4979606;28;20061;-89
2021/08/24 00:24:20;;;;;;;5.63;1.13;;;17.00;79.00;;;;;;4996405;28;20459;-89
2021/08/24 00:26:46;;;;;;;4.45;1.15;;;16.90;78.90;;;;;;4989573;28;20537;-88
2021/08/24 00:29:13;;;;;;;6.22;1.23;;;16.90;79.30;;;;;;4979913;28;20031;-87
2021/08/24 00:31:38;;;;;;;6.95;1.10;;;16.90;79.40;;;;;;5008169;28;20022;-87
2021/08/24 00:34:04;;;;;;;3.53;1.15;;;16.90;79.30;;;;;;5023883;28;20056;-86
2021/08/24 00:36:30;;;;;;;3.92;1.00;;;16.90;79.30;;;;;;5020103;28;20034;-86
2021/08/24 00:38:56;;;;;;;3.25;1.35;;;16.90;79.50;;;;;;5010510;28;20034;-86
2021/08/24 00:41:22;;;;;;;4.30;1.33;;;16.90;79.60;;;;;;5014013;28;20057;-85
2021/08/24 00:43:48;;;;;;;4.95;1.20;;;16.80;79.60;;;;;;5014295;28;20096;-88
2021/08/24 00:46:17;;;;;;;3.45;1.05;;;16.80;80.00;;;;;;5014041;28;20049;-87
2021/08/24 00:48:43;;;;;;;4.53;0.90;;;16.80;80.00;;;;;;5013064;28;20037;-87
2021/08/24 00:51:11;;;;;;;4.65;0.90;;;16.80;80.00;;;;;;5012934;28;20034;-88
2021/08/24 00:53:37;;;;;;;4.43;1.15;;;16.80;80.00;;;;;;5012855;28;20030;-86
2021/08/24 00:56:06;;;;;;;3.40;1.15;;;16.80;80.10;;;;;;5013003;28;20478;-87
2021/08/24 00:58:32;;;;;;;4.18;1.30;;;16.70;80.10;;;;;;5014157;28;20022;-88
2021/08/24 01:00:58;;;;;;;3.00;1.10;;;16.70;80.20;;;;;;5012519;28;20060;-84
2021/08/24 01:03:27;;;;;;;3.97;1.42;;;16.70;80.20;;;;;;5012745;28;20026;-88
2021/08/24 01:05:58;;;;;;;5.22;1.27;;;16.60;80.40;;;;;;5012707;28;20062;-88
2021/08/24 01:08:36;;;;;;;4.25;1.30;;;16.60;80.80;;;;;;5013145;28;20394;-89
2021/08/24 01:11:05;;;;;;;6.30;1.73;;;16.60;80.80;;;;;;5013894;28;20030;-89
2021/08/24 01:13:39;;;;;;;5.38;1.75;;;16.60;80.90;;;;;;5013882;28;20030;-89
2021/08/24 01:16:04;;;;;;;5.50;1.45;;;16.60;80.90;;;;;;5012797;28;20042;-88
2021/08/24 01:18:44;;;;;;;3.72;1.13;;;16.50;81.00;;;;;;5013407;28;20091;-88
2021/08/24 01:21:35;;;;;;;3.25;1.10;;;16.50;81.10;;;;;;5012843;28;20026;-87
2021/08/24 01:24:26;;;;;;;5.03;1.48;;;16.50;81.30;;;;;;5012663;28;20030;-86
2021/08/24 01:27:00;;;;;;;9.00;1.40;;;16.50;81.40;;;;;;5012368;28;20030;-86
2021/08/24 01:30:03;;;;;;;6.65;2.03;;;16.40;81.80;;;;;;5013457;28;20076;-85
2021/08/24 01:32:47;;;;;;;3.85;1.60;;;16.40;82.20;;;;;;5013517;28;20060;-87
2021/08/24 01:36:06;;;;;;;6.55;1.70;;;16.40;82.30;;;;;;5013611;28;20088;-87
2021/08/24 01:38:37;;;;;;;5.90;1.67;;;16.40;82.70;;;;;;5011900;28;20042;-90
2021/08/24 01:41:21;;;;;;;3.83;1.30;;;16.30;82.80;;;;;;5013567;28;20093;-88
2021/08/24 01:44:08;;;;;;;7.03;2.30;;;16.30;82.70;;;;;;5014076;28;20034;-90
2021/08/24 01:46:52;;;;;;;5.95;1.73;;;16.30;83.20;;;;;;5008691;28;20037;-91
2021/08/24 01:49:21;;;;;;;7.53;2.00;;;16.30;83.40;;;;;;4994148;28;20046;-90
2021/08/24 01:51:52;;;;;;;4.05;1.58;;;16.20;83.70;;;;;;4995870;28;20105;-90
2021/08/24 01:54:30;;;;;;;4.72;1.67;;;16.20;83.80;;;;;;4997490;28;20022;-88
2021/08/24 01:56:58;;;;;;;4.55;1.70;;;16.20;83.80;;;;;;4997691;28;20053;-90
2021/08/24 01:59:41;;;;;;;4.40;1.63;;;16.10;84.30;;;;;;4995974;28;20042;-90
2021/08/24 02:02:11;;;;;;;6.95;1.60;;;16.10;84.50;;;;;;4996322;28;20030;-87
2021/08/24 02:05:05;;;;;;;8.35;1.98;;;16.10;84.60;;;;;;4997258;28;20069;-88
2021/08/24 02:07:33;;;;;;;7.30;1.88;;;16.00;85.00;;;;;;4995313;28;20038;-86
2021/08/24 02:10:21;;;;;;;5.80;1.73;;;16.00;85.30;;;;;;4997311;28;20076;-87
2021/08/24 02:12:49;;;;;;;7.25;2.15;;;16.00;85.10;;;;;;4996182;28;20026;-88
2021/08/24 02:15:17;;;;;;;7.15;2.33;;;16.00;85.40;;;;;;4997424;28;20027;-89
2021/08/24 02:17:46;;;;;;;5.95;2.40;;;15.90;85.70;;;;;;4997260;28;20169;-88
2021/08/24 02:20:25;;;;;;;4.95;1.92;;;15.90;86.00;;;;;;4996173;28;20054;-87
2021/08/24 02:22:55;;;;;;;7.55;2.63;;;15.90;86.40;;;;;;4997155;28;20033;-88
2021/08/24 02:25:25;;;;;;;13.07;2.47;;;15.90;86.60;;;;;;4996907;28;20038;-87
2021/08/24 02:27:58;;;;;;;5.32;2.00;;;15.80;86.90;;;;;;4997322;28;20034;-89
2021/08/24 02:30:23;;;;;;;6.35;2.40;;;15.80;86.90;;;;;;4995877;28;20023;-88
2021/08/24 02:32:51;;;;;;;4.47;1.85;;;15.80;86.90;;;;;;4996777;28;20129;-87
2021/08/24 02:35:42;;;;;;;6.75;2.53;;;15.80;87.40;;;;;;4995469;28;20105;-87
2021/08/24 02:38:14;;;;;;;8.40;2.97;;;15.80;87.60;;;;;;4994091;28;20121;-86
2021/08/24 02:40:46;;;;;;;5.30;2.00;;;15.80;87.70;;;;;;4996386;28;20227;-87
2021/08/24 02:43:33;;;;;;;6.05;1.95;;;15.80;87.40;;;;;;4996533;28;20026;-89
2021/08/24 02:46:24;;;;;;;5.85;2.60;;;15.80;88.00;;;;;;4996557;28;20065;-86
2021/08/24 02:49:00;;;;;;;7.20;2.85;;;15.70;88.20;;;;;;4996605;28;20026;-88
2021/08/24 02:51:31;;;;;;;9.70;2.47;;;15.70;88.70;;;;;;4995395;28;20050;-87
2021/08/24 02:54:31;;;;;;;7.65;2.80;;;15.60;88.70;;;;;;4996200;28;20018;-88
2021/08/24 02:57:00;;;;;;;7.38;2.85;;;15.70;89.20;;;;;;4973923;28;20120;-88
2021/08/24 02:59:26;;;;;;;7.90;2.58;;;15.70;89.30;;;;;;4979435;28;20108;-89
2021/08/24 03:01:52;;;;;;;7.47;2.80;;;15.70;89.20;;;;;;4996459;28;20378;-88
2021/08/24 03:04:17;;;;;;;5.70;2.35;;;15.70;89.40;;;;;;4994205;28;20014;-89
2021/08/24 03:06:47;;;;;;;5.90;2.60;;;15.60;89.50;;;;;;4995394;28;20549;-89
2021/08/24 03:09:19;;;;;;;6.43;2.58;;;15.60;89.60;;;;;;4996063;28;20030;-87
2021/08/24 03:12:10;;;;;;;6.30;2.60;;;15.60;89.60;;;;;;4995376;28;20029;-89
2021/08/24 03:14:48;;;;;;;7.57;3.10;;;15.60;89.70;;;;;;4995942;28;20054;-89
2021/08/24 03:17:32;;;;;;;7.05;3.08;;;15.60;89.60;;;;;;4994814;28;20070;-88
2021/08/24 03:20:03;;;;;;;6.05;2.78;;;15.50;89.50;;;;;;4995993;28;20463;-88
2021/08/24 03:22:29;;;;;;;8.15;2.97;;;15.50;89.80;;;;;;4995456;28;20449;-87
2021/08/24 03:24:55;;;;;;;8.45;2.78;;;15.40;90.00;;;;;;4995701;28;20076;-87
2021/08/24 03:27:21;;;;;;;7.68;3.35;;;15.50;90.00;;;;;;4994677;28;20060;-89
2021/08/24 03:30:01;;;;;;;13.05;3.95;;;15.40;90.00;;;;;;4996201;28;20027;-90
2021/08/24 03:32:27;;;;;;;10.02;3.75;;;15.40;90.00;;;;;;4995608;28;20038;-87
2021/08/24 03:34:53;;;;;;;8.27;3.60;;;15.50;90.20;;;;;;4994553;28;20019;-88
2021/08/24 03:37:19;;;;;;;7.90;2.90;;;15.40;90.30;;;;;;4995321;28;20042;-85
2021/08/24 03:39:44;;;;;;;16.98;3.60;;;15.30;90.20;;;;;;4996945;28;20081;-87
2021/08/24 03:42:10;;;;;;;6.55;3.55;;;15.30;90.20;;;;;;4995235;28;20054;-90
2021/08/24 03:44:36;;;;;;;9.52;3.80;;;15.30;90.80;;;;;;4994091;28;20114;-87
2021/08/24 03:47:01;;;;;;;7.20;3.35;;;15.30;90.80;;;;;;4995406;28;20034;-87
2021/08/24 03:49:27;;;;;;;12.07;3.50;;;15.30;90.90;;;;;;4994362;28;20452;-88
2021/08/24 03:51:53;;;;;;;9.32;4.25;;;15.20;91.00;;;;;;4977924;28;20031;-89
2021/08/24 03:54:18;;;;;;;8.20;3.83;;;15.30;91.10;;;;;;4994270;28;20033;-87
2021/08/24 03:56:45;;;;;;;9.98;3.47;;;15.20;91.30;;;;;;4993873;28;20053;-87
2021/08/24 03:59:12;;;;;;;9.38;4.03;;;15.20;91.30;;;;;;4994653;28;20033;-87
2021/08/24 04:01:37;;;;;;;12.25;3.40;;;15.20;91.40;;;;;;4978129;28;20030;-88
2021/08/24 04:04:03;;;;;;;8.88;3.95;;;15.20;91.50;;;;;;4995339;28;20046;-87
2021/08/24 04:06:29;;;;;;;6.85;3.20;;;15.20;91.50;;;;;;4995071;28;20027;-88
2021/08/24 04:08:55;;;;;;;11.00;4.65;;;15.20;91.80;;;;;;4994059;28;20022;-88
2021/08/24 04:11:21;;;;;;;11.05;4.15;;;15.20;91.80;;;;;;4977762;28;20065;-88
2021/08/24 04:13:47;;;;;;;11.52;3.92;;;15.20;91.90;;;;;;4993800;28;20025;-88
2021/08/24 04:16:13;;;;;;;9.82;3.90;;;15.20;91.90;;;;;;4994976;28;20026;-87
2021/08/24 04:18:40;;;;;;;9.93;4.78;;;15.20;92.10;;;;;;4993664;28;20022;-89
2021/08/24 04:21:08;;;;;;;9.18;3.63;;;15.20;92.20;;;;;;4977791;28;20034;-89
2021/08/24 04:23:34;;;;;;;11.80;5.55;;;15.20;92.30;;;;;;4994894;28;20030;-89
2021/08/24 04:26:00;;;;;;;9.73;4.93;;;15.20;92.50;;;;;;4994586;28;20113;-86
2021/08/24 04:28:27;;;;;;;11.25;5.30;;;15.20;92.50;;;;;;4993807;28;20026;-88
2021/08/24 04:30:52;;;;;;;10.25;4.53;;;15.20;92.60;;;;;;4995025;28;20112;-88
2021/08/24 04:33:22;;;;;;;9.55;5.43;;;15.20;92.70;;;;;;4995261;28;20068;-88
2021/08/24 04:35:52;;;;;;;12.02;4.80;;;15.10;92.50;;;;;;5006765;28;20382;-87
2021/08/24 04:38:17;;;;;;;8.00;4.10;;;15.10;92.40;;;;;;5014586;28;20037;-87
2021/08/24 04:40:44;;;;;;;8.68;4.30;;;15.10;92.50;;;;;;5013656;28;20033;-88
2021/08/24 04:43:10;;;;;;;7.80;4.65;;;15.10;92.50;;;;;;5021577;28;20029;-87
2021/08/24 04:45:35;;;;;;;9.63;5.35;;;15.00;92.50;;;;;;5021187;28;20030;-87
2021/08/24 04:48:01;;;;;;;8.93;4.55;;;15.00;92.50;;;;;;5017771;28;20033;-86
2021/08/24 04:50:27;;;;;;;11.15;4.88;;;15.00;92.50;;;;;;5003834;28;20038;-88
2021/08/24 04:52:52;;;;;;;7.97;4.75;;;15.00;92.60;;;;;;5003259;28;20037;-88
2021/08/24 04:55:18;;;;;;;8.18;4.75;;;15.00;92.60;;;;;;5013433;28;20474;-89
2021/08/24 04:57:43;;;;;;;9.55;4.70;;;14.90;92.60;;;;;;4995001;28;20042;-88
2021/08/24 05:00:10;;;;;;;11.88;4.75;;;14.90;92.80;;;;;;4993091;28;20055;-88
2021/08/24 05:02:36;;;;;;;8.15;4.43;;;15.00;92.50;;;;;;4993092;28;20066;-89
2021/08/24 05:05:02;;;;;;;9.80;4.20;;;15.00;92.60;;;;;;5007497;28;20066;-85
2021/08/24 05:07:29;;;;;;;14.07;6.20;;;14.90;92.70;;;;;;5009805;28;20592;-88
2021/08/24 05:09:55;;;;;;;10.50;4.88;;;14.90;92.80;;;;;;4993584;28;20026;-88
2021/08/24 05:12:20;;;;;;;9.57;4.65;;;14.90;92.80;;;;;;5011954;28;20076;-88
2021/08/24 05:14:46;;;;;;;11.48;4.68;;;15.00;92.90;;;;;;5009830;28;20030;-88
2021/08/24 05:17:12;;;;;;;12.70;5.60;;;15.00;93.00;;;;;;4995711;28;20038;-90
2021/08/24 05:19:37;;;;;;;11.10;4.68;;;15.00;93.00;;;;;;4995176;28;20434;-89
2021/08/24 05:22:03;;;;;;;10.40;4.82;;;15.00;93.00;;;;;;5011959;28;20101;-90
2021/08/24 05:24:29;;;;;;;9.98;4.88;;;15.00;93.00;;;;;;5013691;28;20377;-88
2021/08/24 05:26:54;;;;;;;10.77;5.10;;;15.00;93.00;;;;;;5015601;28;20113;-87
2021/08/24 05:29:20;;;;;;;8.38;4.43;;;15.00;93.00;;;;;;5017319;28;20080;-87
2021/08/24 05:31:46;;;;;;;10.45;5.18;;;15.00;93.10;;;;;;5016438;28;20033;-86
2021/08/24 05:34:12;;;;;;;10.18;5.03;;;15.00;93.10;;;;;;5016276;28;20041;-86
2021/08/24 05:36:37;;;;;;;7.90;4.05;;;15.10;93.20;;;;;;5013287;28;20045;-87
2021/08/24 05:39:03;;;;;;;11.95;4.60;;;15.10;93.20;;;;;;5005726;28;20031;-87
2021/08/24 05:41:29;;;;;;;10.20;4.05;;;15.10;93.20;;;;;;5006597;28;20021;-87
2021/08/24 05:43:55;;;;;;;8.85;4.00;;;15.10;93.20;;;;;;4996591;28;20107;-87
2021/08/24 05:46:21;;;;;;;7.95;4.22;;;15.20;93.20;;;;;;5015730;28;20581;-86
2021/08/24 05:48:46;;;;;;;12.52;5.05;;;15.20;93.40;;;;;;4979920;28;20026;-87
2021/08/24 05:51:18;;;;;;;8.93;4.72;;;15.10;93.20;;;;;;5014551;28;20030;-86
2021/08/24 05:53:45;;;;;;;13.30;4.75;;;15.20;93.30;;;;;;5016167;28;20030;-86
2021/08/24 05:56:19;;;;;;;8.43;4.05;;;15.30;93.40;;;;;;5010399;28;20042;-87
2021/08/24 05:58:46;;;;;;;14.48;4.55;;;15.30;93.40;;;;;;5006073;28;20096;-88
2021/08/24 06:01:24;;;;;;;11.23;4.25;;;15.30;93.40;;;;;;5007380;28;20498;-87
2021/08/24 06:03:49;;;;;;;10.55;3.92;;;15.40;93.60;;;;;;5006632;28;20466;-87
2021/08/24 06:06:18;;;;;;;10.63;4.50;;;15.40;93.60;;;;;;5005774;28;20041;-84
2021/08/24 06:08:44;;;;;;;9.85;4.68;;;15.40;93.70;;;;;;5015369;28;20029;-86
2021/08/24 06:11:42;;;;;;;9.85;4.28;;;15.50;94.00;;;;;;4983348;28;20042;-86
2021/08/24 06:14:09;;;;;;;11.32;4.15;;;15.50;93.90;;;;;;5014813;28;20076;-84
2021/08/24 06:16:36;;;;;;;8.13;4.03;;;15.60;94.10;;;;;;5024082;28;20037;-88
2021/08/24 06:19:02;;;;;;;11.48;4.30;;;15.60;94.10;;;;;;5027804;28;20032;-87
2021/08/24 06:21:28;;;;;;;8.23;4.43;;;15.60;94.10;;;;;;5013775;28;20030;-87
2021/08/24 06:23:54;;;;;;;13.55;4.47;;;15.70;94.20;;;;;;5016423;28;20058;-87
2021/08/24 06:26:20;;;;;;;10.55;5.30;;;15.70;94.20;;;;;;5015060;28;20057;-85
2021/08/24 06:28:46;;;;;;;15.63;4.70;;;15.80;94.30;;;;;;5016106;28;20029;-87
2021/08/24 06:31:19;;;;;;;8.57;4.43;;;15.80;94.30;;;;;;5016531;28;20108;-85
2021/08/24 06:33:45;;;;;;;11.45;5.00;;;15.80;94.20;;;;;;5016471;28;20040;-88
2021/08/24 06:36:11;;;;;;;8.90;4.05;;;15.90;94.30;;;;;;5015220;28;20041;-88
2021/08/24 06:38:37;;;;;;;8.63;3.58;;;15.90;94.20;;;;;;4998505;28;20479;-87
2021/08/24 06:41:04;;;;;;;9.10;4.85;;;16.00;94.30;;;;;;5017544;28;20028;-87
2021/08/24 06:43:30;;;;;;;13.30;4.22;;;16.00;94.40;;;;;;5017718;28;20115;-87
2021/08/24 06:45:56;;;;;;;13.23;5.35;;;16.00;94.40;;;;;;5016969;28;20032;-87
2021/08/24 06:48:22;;;;;;;11.25;5.15;;;16.00;94.40;;;;;;5015956;28;20119;-88
2021/08/24 06:50:48;;;;;;;9.65;4.10;;;16.10;94.40;;;;;;5016079;28;20052;-87
2021/08/24 06:53:14;;;;;;;10.90;4.38;;;16.10;94.30;;;;;;5012180;28;20034;-85
2021/08/24 06:55:40;;;;;;;8.80;3.60;;;16.10;94.30;;;;;;5013967;28;20034;-87
2021/08/24 06:58:08;;;;;;;10.07;4.47;;;16.20;94.40;;;;;;5013573;28;20037;-87
2021/08/24 07:00:34;;;;;;;11.27;4.40;;;16.20;94.40;;;;;;5015039;28;20490;-87
2021/08/24 07:03:00;;;;;;;11.40;5.18;;;16.30;94.50;;;;;;5015703;28;20105;-87
2021/08/24 07:05:28;;;;;;;9.52;4.32;;;16.30;94.50;;;;;;4998960;28;20042;-88
2021/08/24 07:07:54;;;;;;;9.48;5.20;;;16.40;94.40;;;;;;5015694;28;21073;-88
2021/08/24 07:10:21;;;;;;;10.80;4.63;;;16.40;94.50;;;;;;5012601;28;20046;-88
2021/08/24 07:12:47;;;;;;;9.75;4.07;;;16.50;94.40;;;;;;5013774;28;20044;-87
2021/08/24 07:15:15;;;;;;;12.77;4.30;;;16.50;94.40;;;;;;5015464;28;20117;-87
2021/08/24 07:17:41;;;;;;;8.18;4.25;;;16.50;94.30;;;;;;5015248;28;20041;-88
2021/08/24 07:20:12;;;;;;;10.27;4.07;;;16.60;94.20;;;;;;5015405;28;20029;-87
2021/08/24 07:22:38;;;;;;;14.65;5.03;;;16.60;94.20;;;;;;5012476;28;20026;-85
2021/08/24 07:25:08;;;;;;;8.35;4.65;;;16.70;94.10;;;;;;5011493;28;20034;-86
2021/08/24 07:27:33;;;;;;;8.75;4.38;;;16.70;94.10;;;;;;5014094;28;20095;-85
2021/08/24 07:29:59;;;;;;;7.97;4.22;;;16.80;94.00;;;;;;5012767;28;20474;-84
2021/08/24 07:32:25;;;;;;;6.97;4.03;;;16.80;93.90;;;;;;5013837;28;20022;-87
2021/08/24 07:34:51;;;;;;;9.77;4.50;;;16.80;93.90;;;;;;4997909;28;20471;-88
2021/08/24 07:37:16;;;;;;;8.55;3.78;;;16.90;93.80;;;;;;4997466;28;20133;-85
2021/08/24 07:39:43;;;;;;;8.57;4.63;;;16.90;93.70;;;;;;5013683;28;20032;-86
2021/08/24 07:42:09;;;;;;;8.80;4.35;;;17.00;93.60;;;;;;5014203;28;20458;-86
2021/08/24 07:44:35;;;;;;;8.10;3.75;;;17.00;93.60;;;;;;5013661;28;20022;-87
2021/08/24 07:47:02;;;;;;;7.70;3.72;;;17.10;93.50;;;;;;5013587;28;20073;-86
2021/08/24 07:49:30;;;;;;;7.43;3.60;;;17.20;93.40;;;;;;4996720;28;20037;-87
2021/08/24 07:51:55;;;;;;;8.63;3.90;;;17.20;93.30;;;;;;5013570;28;20040;-88
2021/08/24 07:54:22;;;;;;;7.57;3.83;;;17.20;93.20;;;;;;4997199;28;20042;-88
2021/08/24 07:56:48;;;;;;;9.18;3.53;;;17.30;93.10;;;;;;5014342;28;20041;-89
2021/08/24 07:59:13;;;;;;;7.60;2.92;;;17.40;93.00;;;;;;5013548;28;20021;-88
2021/08/24 08:01:39;;;;;;;8.50;3.03;;;17.40;92.80;;;;;;5012847;28;20054;-86
2021/08/24 08:04:05;;;;;;;8.20;3.50;;;17.50;92.60;;;;;;4996678;28;20030;-84
2021/08/24 08:06:30;;;;;;;10.23;3.70;;;17.50;92.50;;;;;;4996859;28;20033;-87
2021/08/24 08:08:56;;;;;;;7.05;3.30;;;17.60;92.40;;;;;;5013132;28;20513;-87
2021/08/24 08:11:22;;;;;;;6.75;3.42;;;17.60;92.30;;;;;;5013525;28;20030;-87
2021/08/24 08:13:48;;;;;;;7.53;3.35;;;17.60;92.20;;;;;;5014159;28;20026;-86
2021/08/24 08:16:13;;;;;;;12.38;3.70;;;17.70;92.10;;;;;;4996725;28;20393;-88
2021/08/24 08:18:39;;;;;;;7.47;3.58;;;17.80;92.00;;;;;;4996510;28;20075;-85
2021/08/24 08:21:05;;;;;;;6.47;3.35;;;17.80;91.80;;;;;;4996519;28;20033;-88
2021/08/24 08:23:31;;;;;;;7.80;3.05;;;17.90;91.70;;;;;;5013078;28;20139;-88
2021/08/24 08:26:00;;;;;;;7.07;2.70;;;17.90;91.60;;;;;;4997593;28;20022;-90
2021/08/24 08:28:25;;;;;;;7.32;2.33;;;18.00;91.50;;;;;;5014049;28;20014;-85
2021/08/24 08:30:51;;;;;;;8.95;2.88;;;18.10;91.30;;;;;;5012988;28;20041;-86
2021/08/24 08:33:17;;;;;;;9.75;3.28;;;18.10;91.20;;;;;;4997350;28;20406;-88
2021/08/24 08:35:42;;;;;;;6.32;2.00;;;18.20;91.10;;;;;;5013283;28;20038;-88
2021/08/24 08:38:08;;;;;;;5.40;2.20;;;18.30;91.20;;;;;;4995846;28;20054;-84
2021/08/24 08:40:43;;;;;;;6.80;1.90;;;18.40;90.90;;;;;;5014833;28;20042;-93
2021/08/24 08:43:21;;;;;;;6.13;2.17;;;18.40;90.70;;;;;;5014677;28;20113;-93
2021/08/24 08:45:50;;;;;;;5.00;2.25;;;18.50;90.40;;;;;;5013079;28;20030;-92
2021/08/24 08:48:32;;;;;;;3.97;2.00;;;18.60;90.20;;;;;;5013164;28;20159;-92
2021/08/24 08:51:23;;;;;;;6.18;1.92;;;18.70;90.00;;;;;;5013634;28;20018;-96
2021/08/24 08:54:07;;;;;;;4.45;1.58;;;18.80;89.80;;;;;;5015306;28;20026;-93
2021/08/24 08:56:38;;;;;;;;;;;18.90;89.00;;;;;;5014111;28;20069;-91
2021/08/24 08:59:35;;;;;;;5.15;1.80;;;19.00;88.70;;;;;;5016723;28;19960;-93
2021/08/24 09:02:18;;;;;;;5.28;1.65;;;19.10;88.50;;;;;;5016454;28;20022;-87
2021/08/24 09:04:47;;;;;;;4.57;1.83;;;19.10;87.90;;;;;;5018092;28;20109;-88
2021/08/24 09:07:30;;;;;;;4.43;1.40;;;19.30;87.00;;;;;;5018703;28;20518;-88
2021/08/24 09:09:56;;;;;;;6.90;1.30;;;19.30;86.40;;;;;;5021698;28;20048;-87
2021/08/24 09:12:23;;;;;;;4.45;1.30;;;19.40;86.00;;;;;;5021590;28;20344;-88
2021/08/24 09:14:53;;;;;;;4.18;1.58;;;19.50;84.70;;;;;;5023226;28;20029;-88
2021/08/24 09:17:40;;;;;;;4.15;1.55;;;19.60;84.60;;;;;;5019664;28;20034;-88
2021/08/24 09:20:32;;;;;;;7.55;1.65;;;19.70;83.80;;;;;;5017896;28;20037;-88
2021/08/24 09:23:02;;;;;;;4.22;1.17;;;19.80;83.90;;;;;;5017362;28;20022;-85
2021/08/24 09:25:39;;;;;;;6.22;1.92;;;19.90;83.60;;;;;;5016672;28;20025;-88
2021/08/24 09:28:23;;;;;;;6.72;1.90;;;20.00;82.80;;;;;;5015837;28;20084;-87
2021/08/24 09:30:50;;;;;;;4.97;2.08;;;20.10;82.10;;;;;;5017365;28;20033;-87
2021/08/24 09:33:16;;;;;;;4.75;1.67;;;20.20;81.90;;;;;;5016149;28;20060;-87
2021/08/24 09:35:47;;;;;;;4.80;1.50;;;20.30;82.10;;;;;;5015662;28;20044;-86
2021/08/24 09:38:16;;;;;;;5.25;1.50;;;20.40;81.90;;;;;;5015717;28;20054;-87
2021/08/24 09:40:50;;;;;;;2.95;1.20;;;20.50;81.90;;;;;;5010761;28;20025;-87
2021/08/24 09:43:32;;;;;;;3.10;1.17;;;20.60;81.90;;;;;;5016370;28;20037;-87
2021/08/24 09:46:10;;;;;;;4.70;1.70;;;20.70;81.60;;;;;;5013006;28;20022;-87
2021/08/24 09:48:54;;;;;;;4.55;1.42;;;20.90;80.70;;;;;;5014810;28;20026;-87
2021/08/24 09:51:38;;;;;;;3.90;1.08;;;21.00;80.10;;;;;;5015550;28;20033;-86
2021/08/24 09:54:31;;;;;;;4.95;1.88;;;21.10;79.90;;;;;;5014698;28;20029;-85
2021/08/24 09:57:06;;;;;;;3.53;1.35;;;21.10;79.70;;;;;;5010902;28;20566;-89
2021/08/24 09:59:37;;;;;;;3.33;1.10;;;21.10;79.70;;;;;;4997281;28;20060;-88
2021/08/24 10:02:05;;;;;;;4.55;1.33;;;21.10;79.30;;;;;;5007659;28;20076;-89
2021/08/24 10:04:49;;;;;;;5.78;1.48;;;21.00;78.90;;;;;;5021916;28;20037;-88
2021/08/24 10:07:31;;;;;;;2.75;1.20;;;21.10;78.70;;;;;;5016950;28;20018;-88
2021/08/24 10:09:57;;;;;;;4.03;1.27;;;21.10;78.70;;;;;;5016343;28;20033;-88
2021/08/24 10:12:29;;;;;;;5.70;1.27;;;21.10;78.60;;;;;;5015310;28;20049;-88
2021/08/24 10:14:56;;;;;;;7.00;2.00;;;21.20;78.50;;;;;;5015057;28;20029;-88
2021/08/24 10:17:36;;;;;;;6.03;1.38;;;21.30;78.30;;;;;;4999309;28;20037;-89
2021/08/24 10:20:30;;;;;;;4.40;1.55;;;21.30;77.90;;;;;;5016613;28;20033;-88
2021/08/24 10:22:57;;;;;;;4.30;1.35;;;21.30;77.50;;;;;;5016412;28;20071;-89
2021/08/24 10:25:33;;;;;;;2.92;1.30;;;21.30;77.60;;;;;;5016306;28;20025;-89
2021/08/24 10:28:19;;;;;;;3.47;1.40;;;21.50;77.40;;;;;;5016471;28;20026;-88
2021/08/24 10:30:51;;;;;;;3.83;1.50;;;21.70;76.60;;;;;;5015846;28;20049;-86
2021/08/24 10:33:47;;;;;;;3.45;1.08;;;21.80;76.40;;;;;;5016714;28;20462;-88
2021/08/24 10:36:24;;;;;;;7.82;1.42;;;21.80;76.10;;;;;;5014791;28;20124;-89
2021/08/24 10:39:04;;;;;;;9.35;1.35;;;21.90;75.20;;;;;;5015225;28;20029;-87
2021/08/24 10:41:42;;;;;;;3.30;1.13;;;22.00;74.50;;;;;;5016487;28;20433;-88
2021/08/24 10:44:23;;;;;;;1.80;0.80;;;22.10;73.80;;;;;;5015177;28;20018;-88
2021/08/24 10:46:51;;;;;;;3.42;1.30;;;22.20;73.40;;;;;;5016152;28;20081;-88
2021/08/24 10:49:16;;;;;;;4.88;1.58;;;22.40;73.10;;;;;;5015989;28;20206;-89
2021/08/24 10:52:14;;;;;;;2.95;1.10;;;22.40;72.40;;;;;;4998696;28;20486;-89
2021/08/24 10:54:45;;;;;;;2.78;0.98;;;22.50;71.30;;;;;;5015560;28;20458;-89
2021/08/24 10:57:39;;;;;;;2.58;0.98;;;22.60;71.00;;;;;;5015966;28;20044;-88
2021/08/24 11:00:22;;;;;;;2.17;0.90;;;22.60;70.00;;;;;;5015569;28;20050;-88
2021/08/24 11:03:19;;;;;;;2.38;0.90;;;22.70;69.30;;;;;;5014980;28;20092;-89
2021/08/24 11:06:02;;;;;;;2.70;1.10;;;22.70;68.80;;;;;;5015423;28;20037;-90
2021/08/24 11:08:52;;;;;;;4.72;1.30;;;22.80;68.70;;;;;;5014943;28;20085;-89
2021/08/24 11:11:30;;;;;;;2.88;0.80;;;23.00;68.00;;;;;;5014413;28;20437;-89
2021/08/24 11:14:05;;;;;;;2.40;0.88;;;23.30;67.70;;;;;;5015477;28;20474;-88
2021/08/24 11:16:49;;;;;;;3.22;0.75;;;23.60;66.80;;;;;;5016133;28;20041;-90
2021/08/24 11:19:33;;;;;;;4.63;1.20;;;24.00;65.40;;;;;;5014481;28;20022;-89
2021/08/24 11:22:09;;;;;;;3.10;1.05;;;24.10;64.40;;;;;;5016890;28;20026;-89
2021/08/24 11:25:02;;;;;;;3.05;1.00;;;24.20;63.70;;;;;;5013690;28;20026;-88
2021/08/24 11:27:45;;;;;;;4.13;1.00;;;24.40;62.60;;;;;;5014401;28;20036;-88
2021/08/24 11:30:37;;;;;;;2.13;0.80;;;24.70;61.80;;;;;;5014346;28;20117;-89
2021/08/24 11:33:15;;;;;;;2.08;0.80;;;25.00;61.40;;;;;;5015434;28;20049;-87
2021/08/24 11:35:52;;;;;;;2.38;0.80;;;25.40;60.70;;;;;;5015635;28;20176;-87
2021/08/24 11:38:23;;;;;;;5.15;1.08;;;25.70;59.90;;;;;;5015358;28;20045;-87
2021/08/24 11:41:00;;;;;;;4.30;0.82;;;26.10;59.10;;;;;;5015202;28;20029;-89
2021/08/24 11:43:42;;;;;;;2.47;0.93;;;26.30;57.00;;;;;;5014015;28;20030;-88
2021/08/24 11:46:32;;;;;;;6.80;1.55;;;26.60;56.70;;;;;;5014448;28;20076;-87
2021/08/24 11:49:17;;;;;;;2.40;0.70;;;26.80;56.20;;;;;;5015023;28;20051;-88
2021/08/24 11:51:52;;;;;;;2.10;0.73;;;26.90;54.70;;;;;;5015509;28;20105;-88
2021/08/24 11:54:40;;;;;;;2.22;0.70;;;27.00;54.40;;;;;;5014913;28;20018;-87
2021/08/24 11:57:25;;;;;;;3.00;0.90;;;27.10;53.00;;;;;;5014239;28;20486;-88
2021/08/24 11:59:52;;;;;;;2.40;0.70;;;27.40;52.40;;;;;;5013098;28;20054;-86
2021/08/24 12:02:29;;;;;;;2.38;1.10;;;27.60;52.30;;;;;;4997549;28;20089;-88
2021/08/24 12:04:55;;;;;;;2.53;0.70;;;27.90;50.80;;;;;;5014908;28;20018;-88
2021/08/24 12:07:38;;;;;;;2.22;0.82;;;27.90;50.40;;;;;;5014750;28;20549;-88
2021/08/24 12:10:25;;;;;;;2.42;1.00;;;28.00;49.00;;;;;;5014767;28;20104;-86
2021/08/24 12:12:52;;;;;;;3.33;1.10;;;28.10;48.70;;;;;;5014702;28;20088;-87
2021/08/24 12:15:42;;;;;;;2.67;1.00;;;28.10;49.20;;;;;;5015048;28;20105;-87
2021/08/24 12:18:11;;;;;;;2.80;1.00;;;28.10;47.60;;;;;;5014724;28;20041;-86
2021/08/24 12:20:49;;;;;;;2.15;0.90;;;28.20;48.10;;;;;;5012990;28;20493;-88
2021/08/24 12:23:41;;;;;;;2.35;0.90;;;28.40;47.40;;;;;;5013934;28;20057;-89
2021/08/24 12:26:27;;;;;;;2.28;1.00;;;28.50;46.80;;;;;;5013491;28;20489;-89
2021/08/24 12:28:55;;;;;;;1.95;0.82;;;28.70;46.70;;;;;;5014290;28;20153;-87
2021/08/24 12:31:36;;;;;;;2.22;0.80;;;28.90;47.10;;;;;;5013104;28;20025;-87
2021/08/24 12:34:34;;;;;;;3.70;1.10;;;29.20;46.80;;;;;;5010353;28;20037;-88
2021/08/24 12:37:18;;;;;;;2.70;1.02;;;29.50;46.00;;;;;;4998675;28;20056;-89
2021/08/24 12:39:49;;;;;;;2.42;1.00;;;29.90;45.50;;;;;;5008816;28;20031;-86
2021/08/24 12:42:36;;;;;;;2.25;1.10;;;30.10;46.00;;;;;;4994379;28;20030;-89
2021/08/24 12:45:01;;;;;;;3.05;1.00;;;30.30;44.90;;;;;;4994760;28;20402;-90
2021/08/24 12:47:40;;;;;;;2.90;1.02;;;30.50;45.20;;;;;;4994405;28;20030;-86
2021/08/24 12:50:09;;;;;;;2.75;1.15;;;30.70;44.30;;;;;;4994948;28;20037;-87
2021/08/24 12:52:36;;;;;;;2.28;0.98;;;31.10;44.10;;;;;;4994908;28;20022;-88
2021/08/24 12:55:06;;;;;;;3.60;0.88;;;31.20;43.60;;;;;;4994239;28;20030;-88
2021/08/24 12:57:36;;;;;;;2.17;1.05;;;31.40;43.30;;;;;;4993186;28;20038;-89
2021/08/24 13:00:23;;;;;;;3.63;1.20;;;31.60;43.10;;;;;;4994260;28;20050;-89
2021/08/24 13:03:19;;;;;;;2.15;0.90;;;31.60;42.10;;;;;;5006338;28;20030;-88
2021/08/24 13:05:48;;;;;;;2.50;1.10;;;31.40;41.70;;;;;;4994373;28;20072;-89
2021/08/24 13:08:27;;;;;;;2.28;0.90;;;31.20;42.30;;;;;;4994011;28;20538;-89
2021/08/24 13:11:16;;;;;;;2.33;1.02;;;31.10;41.70;;;;;;4993719;28;20534;-89